Time;durP1;ratioP1;P1;durP2;ratioP2;P2;SDS_P1;SDS_P2;PMS_P1;PMS_P2;Temp;Humidity;BMP_temperature;BMP_pressure;BME280_temperature;BME280_humidity;BME280_pressure;Samples;Min_cycle;Max_cycle;Signal;HPM_P1;HPM_P2
2022/09/14 00:00:58;;;;;;;4.47;2.45;;;;;;;17.08;65.37;99895.72;4948768;27;99121;-72
2022/09/14 00:03:24;;;;;;;4.55;2.50;;;;;;;17.07;65.51;99898.78;4981091;27;98285;-72
2022/09/14 00:05:51;;;;;;;3.63;2.55;;;;;;;17.05;65.53;99892.84;4965070;27;115612;-64
2022/09/14 00:08:18;;;;;;;4.03;2.38;;;;;;;17.03;65.79;99885.03;4980483;27;98129;-72
2022/09/14 00:10:45;;;;;;;3.72;2.25;;;;;;;17.02;65.71;99885.34;4963589;27;98763;-65
2022/09/14 00:13:15;;;;;;;3.25;2.00;;;;;;;17.00;65.63;99885.66;4965177;27;98219;-72
2022/09/14 00:15:45;;;;;;;6.43;2.25;;;;;;;16.97;65.45;99880.84;4958607;27;99143;-72
2022/09/14 00:18:11;;;;;;;5.13;2.22;;;;;;;16.95;65.72;99871.44;4977151;27;100019;-65
2022/09/14 00:20:41;;;;;;;4.18;2.42;;;;;;;16.92;65.76;99867.44;4974212;27;97885;-72
2022/09/14 00:23:07;;;;;;;3.75;2.35;;;;;;;16.89;65.93;99873.50;4973870;27;98895;-65
2022/09/14 00:25:34;;;;;;;3.45;2.40;;;;;;;16.86;65.89;99863.28;4962635;27;124471;-65
2022/09/14 00:28:01;;;;;;;3.47;2.25;;;;;;;16.84;65.76;99874.50;4963030;27;98154;-65
2022/09/14 00:30:27;;;;;;;4.00;2.47;;;;;;;16.84;65.80;99870.97;4947782;27;98257;-65
2022/09/14 00:32:54;;;;;;;3.33;2.13;;;;;;;16.83;65.81;99859.28;4978757;27;99183;-65
2022/09/14 00:35:21;;;;;;;3.75;2.45;;;;;;;16.80;66.04;99854.47;4966934;27;97841;-72
2022/09/14 00:37:51;;;;;;;3.83;2.28;;;;;;;16.78;65.64;99856.75;4968159;27;97917;-65
2022/09/14 00:40:21;;;;;;;3.85;2.08;;;;;;;16.76;65.97;99855.47;4994082;27;97841;-72
2022/09/14 00:42:48;;;;;;;3.72;2.30;;;;;;;16.75;65.96;99856.59;4978743;27;98242;-65
2022/09/14 00:45:20;;;;;;;5.45;2.40;;;;;;;16.72;65.85;99851.75;4980332;27;109515;-65
2022/09/14 00:47:51;;;;;;;3.10;2.00;;;;;;;16.69;66.10;99858.63;4980542;27;97988;-66
2022/09/14 00:50:17;;;;;;;4.78;2.75;;;;;;;16.67;66.10;99858.97;4966470;27;97913;-73
2022/09/14 00:52:46;;;;;;;5.30;2.78;;;;;;;16.65;66.14;99857.69;4968216;27;98056;-72
2022/09/14 00:55:16;;;;;;;6.10;2.20;;;;;;;16.63;66.24;99857.22;4970467;27;99431;-65
2022/09/14 00:57:51;;;;;;;3.50;2.75;;;;;;;16.59;65.89;99848.91;4943751;27;98311;-73
2022/09/14 01:00:24;;;;;;;3.72;2.45;;;;;;;16.56;66.10;99849.53;4969749;27;98833;-72
2022/09/14 01:02:50;;;;;;;7.88;3.00;;;;;;;16.55;66.21;99841.72;4948021;27;98008;-65
2022/09/14 01:05:18;;;;;;;4.22;2.35;;;;;;;16.52;66.22;99839.63;4967260;27;121683;-72
2022/09/14 01:07:57;;;;;;;3.70;1.88;;;;;;;16.47;66.09;99840.59;4951519;27;97951;-65
2022/09/14 01:10:49;;;;;;;3.83;2.42;;;;;;;16.43;66.10;99845.88;4978362;27;97881;-73
2022/09/14 01:13:40;;;;;;;5.05;2.53;;;;;;;16.43;66.12;99845.06;4994853;27;98069;-72
2022/09/14 01:16:24;;;;;;;5.28;2.58;;;;;;;16.41;66.16;99845.38;4999222;27;100179;-65
2022/09/14 01:18:59;;;;;;;4.63;2.10;;;;;;;16.41;66.36;99844.59;5001469;27;98671;-65
2022/09/14 01:21:33;;;;;;;4.78;2.78;;;;;;;16.36;65.96;99842.81;4962046;27;98111;-65
2022/09/14 01:24:33;;;;;;;5.03;2.35;;;;;;;16.35;66.07;99846.69;4946946;27;98462;-65
2022/09/14 01:27:05;;;;;;;5.03;2.35;;;;;;;16.33;66.18;99854.34;4980620;27;97836;-66
2022/09/14 01:29:44;;;;;;;3.67;2.38;;;;;;;16.31;65.95;99843.00;4992034;27;98394;-73
2022/09/14 01:32:21;;;;;;;4.60;2.90;;;;;;;16.29;66.19;99841.72;4999974;27;98543;-72
2022/09/14 01:35:12;;;;;;;4.47;2.67;;;;;;;16.29;66.26;99836.28;4962221;27;97893;-72
2022/09/14 01:37:51;;;;;;;5.30;2.63;;;;;;;16.27;66.16;99844.75;4999723;27;98179;-73
2022/09/14 01:40:28;;;;;;;7.03;3.17;;;;;;;16.25;66.43;99836.09;4984321;27;97964;-65
2022/09/14 01:43:28;;;;;;;3.58;2.55;;;;;;;16.24;66.10;99847.31;4959306;27;97951;-72
2022/09/14 01:46:10;;;;;;;3.47;2.67;;;;;;;16.22;66.25;99850.34;4971462;27;98071;-73
2022/09/14 01:48:54;;;;;;;3.25;2.38;;;;;;;16.22;66.39;99844.09;4960230;27;97943;-72
2022/09/14 01:51:30;;;;;;;3.38;2.42;;;;;;;16.22;66.43;99834.03;4963107;27;102620;-65
2022/09/14 01:54:18;;;;;;;4.38;2.83;;;;;;;16.20;66.40;99842.50;4967194;27;99072;-65
2022/09/14 01:57:05;;;;;;;6.70;2.75;;;;;;;16.20;66.32;99834.34;4964008;27;97942;-72
2022/09/14 01:59:36;;;;;;;5.20;3.10;;;;;;;16.20;66.73;99836.28;4956227;27;98116;-66
2022/09/14 02:02:18;;;;;;;4.28;3.08;;;;;;;16.19;66.81;99824.59;4943056;27;97986;-73
2022/09/14 02:05:33;;;;;;;6.00;3.65;;;;;;;16.20;66.49;99822.69;4957846;27;98133;-65
2022/09/14 02:08:01;;;;;;;4.35;2.75;;;;;;;16.19;66.56;99815.63;4973237;27;98210;-73
2022/09/14 02:10:28;;;;;;;5.72;2.95;;;;;;;16.20;66.86;99825.41;4957073;27;98165;-73
2022/09/14 02:12:57;;;;;;;4.70;3.47;;;;;;;16.20;66.78;99820.75;4961305;27;98009;-72
2022/09/14 02:15:27;;;;;;;5.93;3.25;;;;;;;16.18;66.90;99822.19;4953710;27;98121;-65
2022/09/14 02:17:54;;;;;;;3.90;2.83;;;;;;;16.17;67.00;99821.41;4943139;27;97980;-73
2022/09/14 02:20:31;;;;;;;4.80;2.92;;;;;;;16.15;66.62;99823.66;4951238;27;98285;-73
2022/09/14 02:22:59;;;;;;;4.80;2.97;;;;;;;16.13;66.97;99815.00;4983449;27;98118;-72
2022/09/14 02:25:28;;;;;;;4.38;2.65;;;;;;;16.13;66.86;99815.00;4965709;27;97905;-73
2022/09/14 02:27:55;;;;;;;4.65;2.85;;;;;;;16.12;66.99;99816.13;4943041;27;98360;-72
2022/09/14 02:30:21;;;;;;;5.35;2.65;;;;;;;16.14;67.22;99822.03;4968832;27;98102;-65
2022/09/14 02:33:07;;;;;;;5.00;2.65;;;;;;;16.19;66.79;99815.63;4966529;27;101655;-65
2022/09/14 02:35:49;;;;;;;4.20;2.55;;;;;;;16.23;66.87;99810.34;4995127;27;98018;-73
2022/09/14 02:38:42;;;;;;;4.33;2.73;;;;;;;16.27;66.63;99806.69;4978334;27;98081;-73
2022/09/14 02:41:27;;;;;;;5.15;2.83;;;;;;;16.30;66.36;99805.22;4956328;27;98149;-65
2022/09/14 02:44:04;;;;;;;6.97;3.10;;;;;;;16.29;66.47;99809.09;4973996;27;98052;-66
2022/09/14 02:46:54;;;;;;;6.13;2.97;;;;;;;16.31;66.33;99804.09;4982241;27;99365;-65
2022/09/14 02:50:06;;;;;;;5.20;2.92;;;;;;;16.32;66.49;99803.00;5001008;27;98061;-65
2022/09/14 02:52:47;;;;;;;7.60;3.30;;;;;;;16.32;66.68;99805.72;4995224;27;99308;-65
2022/09/14 02:55:18;;;;;;;5.43;3.13;;;;;;;16.33;66.70;99801.88;4989808;27;97946;-65
2022/09/14 02:58:09;;;;;;;5.10;3.22;;;;;;;16.34;66.39;99798.03;4988647;27;98069;-65
2022/09/14 03:00:44;;;;;;;3.60;2.35;;;;;;;16.34;66.65;99806.97;4967781;27;98195;-72
2022/09/14 03:03:14;;;;;;;6.00;3.25;;;;;;;16.34;66.76;99787.16;4941968;27;98436;-72
2022/09/14 03:05:42;;;;;;;4.75;3.20;;;;;;;16.34;66.54;99787.94;4953923;27;98003;-65
2022/09/14 03:08:10;;;;;;;6.15;3.05;;;;;;;16.29;66.84;99790.84;4937491;27;99138;-73
2022/09/14 03:10:43;;;;;;;5.63;3.05;;;;;;;16.29;66.52;99795.47;4960261;27;97851;-72
2022/09/14 03:13:09;;;;;;;5.53;3.05;;;;;;;16.25;66.70;99795.31;4943807;27;98067;-72
2022/09/14 03:15:36;;;;;;;6.07;3.00;;;;;;;16.25;67.15;99805.41;4930522;27;97870;-72
2022/09/14 03:18:04;;;;;;;6.85;3.38;;;;;;;16.24;66.66;99799.16;4929770;27;98212;-65
2022/09/14 03:20:32;;;;;;;5.15;3.08;;;;;;;16.24;66.65;99798.38;4943731;27;97896;-64
2022/09/14 03:22:59;;;;;;;5.28;3.15;;;;;;;16.20;66.66;99796.28;4939721;27;98013;-72
2022/09/14 03:25:27;;;;;;;5.03;2.95;;;;;;;16.16;66.61;99795.34;4931261;27;98427;-73
2022/09/14 03:27:56;;;;;;;4.65;2.80;;;;;;;16.15;66.60;99799.19;4943853;27;99058;-65
2022/09/14 03:30:22;;;;;;;6.43;3.05;;;;;;;16.14;66.75;99804.91;4977511;28;98021;-65
2022/09/14 03:32:48;;;;;;;5.38;2.95;;;;;;;16.12;66.76;99804.47;4959772;27;98225;-72
2022/09/14 03:35:17;;;;;;;4.22;2.30;;;;;;;16.11;66.68;99803.66;4925965;27;127337;-73
2022/09/14 03:37:45;;;;;;;6.05;2.95;;;;;;;16.09;66.72;99805.88;4947851;27;97958;-65
2022/09/14 03:40:13;;;;;;;4.63;3.03;;;;;;;16.07;66.55;99813.56;4938368;27;97841;-73
2022/09/14 03:42:49;;;;;;;5.57;2.95;;;;;;;16.07;66.51;99818.19;4940977;27;98306;-72
2022/09/14 03:45:16;;;;;;;5.22;2.88;;;;;;;16.07;66.95;99799.97;4926692;27;99850;-65
2022/09/14 03:47:44;;;;;;;5.55;3.03;;;;;;;16.05;66.83;99804.13;4926308;27;104961;-73
2022/09/14 03:50:11;;;;;;;8.73;3.17;;;;;;;16.05;67.04;99796.78;4959464;27;98064;-65
2022/09/14 03:52:38;;;;;;;8.30;3.35;;;;;;;16.05;66.97;99801.41;4924777;28;97968;-73
2022/09/14 03:55:06;;;;;;;5.28;3.03;;;;;;;16.05;66.96;99798.69;4926796;28;98044;-65
2022/09/14 03:57:34;;;;;;;4.18;2.95;;;;;;;16.04;66.89;99795.19;4954264;28;98178;-73
2022/09/14 04:00:01;;;;;;;4.68;3.10;;;;;;;16.04;67.08;99799.81;4939751;28;97964;-72
2022/09/14 04:02:28;;;;;;;6.05;3.10;;;;;;;16.03;67.00;99798.19;4962198;27;98454;-66
2022/09/14 04:04:55;;;;;;;5.78;2.85;;;;;;;16.03;67.00;99798.19;4980518;27;97956;-73
2022/09/14 04:07:22;;;;;;;4.75;3.00;;;;;;;16.02;67.14;99788.44;4972580;27;98268;-65
2022/09/14 04:09:52;;;;;;;5.72;3.22;;;;;;;16.03;67.06;99784.59;4976204;28;97892;-73
2022/09/14 04:12:20;;;;;;;5.60;2.80;;;;;;;16.03;67.14;99782.69;4959868;27;99163;-65
2022/09/14 04:14:46;;;;;;;5.15;2.90;;;;;;;16.04;66.93;99780.78;4956151;27;97998;-65
2022/09/14 04:17:12;;;;;;;4.95;2.88;;;;;;;16.04;66.99;99778.88;4960688;27;99103;-73
2022/09/14 04:19:39;;;;;;;5.57;3.22;;;;;;;16.03;67.23;99773.72;4931168;28;98469;-66
2022/09/14 04:22:06;;;;;;;5.57;3.17;;;;;;;16.03;67.12;99766.38;4943068;28;98255;-65
2022/09/14 04:24:32;;;;;;;4.57;3.05;;;;;;;16.03;66.97;99771.81;4976210;28;97989;-65
2022/09/14 04:26:59;;;;;;;5.00;3.22;;;;;;;16.04;66.92;99767.19;4976057;28;98147;-73
2022/09/14 04:29:26;;;;;;;3.95;2.92;;;;;;;16.02;67.06;99772.94;4979254;27;98002;-65
2022/09/14 04:31:53;;;;;;;5.85;2.88;;;;;;;16.00;67.24;99780.63;4974036;27;97997;-73
2022/09/14 04:34:20;;;;;;;5.38;2.95;;;;;;;16.01;67.22;99774.06;4949670;27;98046;-73
2022/09/14 04:36:48;;;;;;;6.57;3.55;;;;;;;16.00;67.42;99775.19;4963824;27;98007;-73
2022/09/14 04:39:15;;;;;;;7.10;3.42;;;;;;;15.99;67.19;99775.50;4950256;27;97930;-65
2022/09/14 04:41:42;;;;;;;4.78;2.83;;;;;;;16.00;67.01;99771.69;4943549;27;99852;-65
2022/09/14 04:44:09;;;;;;;7.10;3.17;;;;;;;15.99;67.15;99770.06;4956193;27;99516;-72
2022/09/14 04:46:38;;;;;;;4.85;3.00;;;;;;;15.99;67.09;99775.50;4956224;27;98303;-72
2022/09/14 04:49:05;;;;;;;6.63;3.70;;;;;;;15.98;67.33;99782.84;4973290;27;98236;-65
2022/09/14 04:51:33;;;;;;;4.25;2.88;;;;;;;15.99;67.24;99786.38;4925933;27;99787;-73
2022/09/14 04:54:04;;;;;;;4.15;2.72;;;;;;;15.99;67.16;99786.38;4977688;27;98522;-72
2022/09/14 04:56:32;;;;;;;5.57;3.30;;;;;;;15.99;67.36;99789.09;4938543;27;98184;-64
2022/09/14 04:59:00;;;;;;;5.00;2.80;;;;;;;16.00;67.17;99793.41;4944854;27;98458;-64
2022/09/14 05:01:37;;;;;;;4.13;2.75;;;;;;;16.00;67.31;99775.19;4962639;27;98563;-72
2022/09/14 05:04:06;;;;;;;5.28;2.92;;;;;;;16.02;67.28;99785.72;4959801;27;98426;-72
2022/09/14 05:06:36;;;;;;;4.30;3.25;;;;;;;16.04;67.10;99781.59;4962406;27;98695;-73
2022/09/14 05:09:04;;;;;;;6.77;3.43;;;;;;;16.09;67.20;99788.78;4965955;27;97937;-64
2022/09/14 05:11:33;;;;;;;4.63;2.47;;;;;;;16.08;67.20;99785.25;4982085;27;97970;-65
2022/09/14 05:14:00;;;;;;;7.60;3.15;;;;;;;16.12;67.13;99793.59;4978008;27;100130;-64
2022/09/14 05:16:29;;;;;;;5.85;3.22;;;;;;;16.10;67.07;99788.44;4984644;27;99463;-65
2022/09/14 05:19:01;;;;;;;6.05;3.03;;;;;;;16.13;67.08;99781.56;4978526;27;98071;-65
2022/09/14 05:21:31;;;;;;;5.43;3.15;;;;;;;16.14;67.18;99775.81;4960085;27;98550;-72
2022/09/14 05:24:04;;;;;;;6.10;3.35;;;;;;;16.16;66.99;99776.31;4975623;27;98672;-65
2022/09/14 05:26:32;;;;;;;4.33;2.97;;;;;;;16.15;66.88;99771.16;4983082;27;99421;-72
2022/09/14 05:29:01;;;;;;;4.47;2.85;;;;;;;16.15;66.91;99777.44;4993477;27;98086;-73
2022/09/14 05:31:28;;;;;;;4.97;2.92;;;;;;;16.15;67.06;99773.88;4956467;27;97994;-65
2022/09/14 05:33:55;;;;;;;4.13;2.38;;;;;;;16.16;66.96;99761.91;4957628;27;99836;-65
2022/09/14 05:36:22;;;;;;;6.68;3.42;;;;;;;16.16;66.77;99761.91;4979363;27;98346;-65
2022/09/14 05:38:48;;;;;;;4.68;3.15;;;;;;;16.16;66.92;99765.44;4969633;27;97854;-73
2022/09/14 05:41:16;;;;;;;8.27;3.13;;;;;;;16.16;66.94;99757.28;4985854;27;98433;-66
2022/09/14 05:43:42;;;;;;;5.28;3.05;;;;;;;16.16;66.75;99757.28;4965216;27;97988;-65
2022/09/14 05:46:28;;;;;;;5.53;2.75;;;;;;;16.17;66.62;99750.72;4952081;27;98063;-65
2022/09/14 05:48:56;;;;;;;5.10;3.08;;;;;;;16.19;66.81;99753.09;4984195;27;97919;-72
2022/09/14 05:51:25;;;;;;;7.13;3.22;;;;;;;16.18;66.72;99757.72;4962023;27;98285;-65
2022/09/14 05:53:58;;;;;;;5.82;2.67;;;;;;;16.20;66.63;99749.28;4978607;27;105013;-72
2022/09/14 05:56:27;;;;;;;6.45;3.15;;;;;;;16.23;66.85;99745.91;4975183;27;98149;-65
2022/09/14 05:58:53;;;;;;;4.82;2.60;;;;;;;16.24;66.70;99747.50;4986974;27;98045;-65
2022/09/14 06:01:23;;;;;;;4.60;2.90;;;;;;;16.28;66.50;99747.66;4966138;27;98242;-72
2022/09/14 06:03:55;;;;;;;4.80;2.50;;;;;;;16.30;66.76;99746.19;4960840;27;97946;-73
2022/09/14 06:06:21;;;;;;;5.30;3.08;;;;;;;16.35;66.44;99753.41;4966421;27;97871;-65
2022/09/14 06:08:51;;;;;;;4.95;3.20;;;;;;;16.40;66.55;99751.31;4965929;27;98179;-65
2022/09/14 06:11:21;;;;;;;5.65;3.35;;;;;;;16.42;66.64;99751.78;4963326;27;98191;-73
2022/09/14 06:13:48;;;;;;;6.20;3.38;;;;;;;16.42;66.48;99743.63;4958992;27;98231;-73
2022/09/14 06:16:17;;;;;;;6.13;3.45;;;;;;;16.42;66.38;99743.63;4948951;27;97885;-65
2022/09/14 06:18:44;;;;;;;5.75;3.33;;;;;;;16.45;66.49;99737.53;4948706;27;98192;-64
2022/09/14 06:21:15;;;;;;;6.13;3.03;;;;;;;16.50;66.45;99736.56;4947171;27;97929;-65
2022/09/14 06:23:45;;;;;;;6.43;3.50;;;;;;;16.55;66.31;99735.63;4966554;27;98212;-73
2022/09/14 06:26:12;;;;;;;8.05;3.80;;;;;;;16.58;66.16;99732.22;4966615;27;97865;-73
2022/09/14 06:28:39;;;;;;;5.13;3.30;;;;;;;16.62;66.18;99730.44;4962615;27;98167;-73
2022/09/14 06:31:06;;;;;;;4.78;3.28;;;;;;;16.64;66.13;99737.16;4981450;27;97812;-65
2022/09/14 06:33:33;;;;;;;4.93;2.90;;;;;;;16.68;66.26;99738.13;4971084;27;98119;-65
2022/09/14 06:36:11;;;;;;;4.70;2.55;;;;;;;16.71;65.95;99739.41;4972600;27;97965;-72
2022/09/14 06:38:38;;;;;;;5.22;2.50;;;;;;;16.75;65.91;99736.84;4929630;27;98055;-65
2022/09/14 06:41:06;;;;;;;3.72;2.35;;;;;;;16.79;65.62;99738.59;4959301;27;100879;-72
2022/09/14 06:43:35;;;;;;;5.95;2.58;;;;;;;16.84;65.57;99734.88;4963682;27;98189;-73
2022/09/14 06:46:14;;;;;;;4.32;2.20;;;;;;;16.91;65.58;99746.06;4932444;27;97988;-65
2022/09/14 06:48:51;;;;;;;4.78;1.67;;;;;;;16.99;65.27;99736.28;4950856;27;97842;-73
2022/09/14 06:51:25;;;;;;;7.13;2.13;;;;;;;17.05;65.00;99741.19;4946662;27;98139;-73
2022/09/14 06:53:54;;;;;;;3.80;1.83;;;;;;;17.13;64.89;99739.56;4945980;28;98008;-73
2022/09/14 06:56:21;;;;;;;3.42;1.98;;;;;;;17.18;64.86;99742.91;4956538;27;98219;-65
2022/09/14 06:58:48;;;;;;;3.67;2.15;;;;;;;17.25;64.65;99739.66;4944843;27;97970;-73
2022/09/14 07:01:16;;;;;;;4.55;2.20;;;;;;;17.33;64.54;99740.72;4963532;27;98513;-65
2022/09/14 07:03:45;;;;;;;4.32;2.38;;;;;;;17.42;64.38;99744.22;4956980;27;98504;-73
2022/09/14 07:06:16;;;;;;;4.13;2.25;;;;;;;17.46;64.34;99736.97;4978003;27;98011;-73
2022/09/14 07:08:43;;;;;;;4.57;1.95;;;;;;;17.51;64.14;99742.22;4960705;27;98112;-73
2022/09/14 07:11:10;;;;;;;3.50;2.22;;;;;;;17.53;64.28;99741.91;4968119;27;98076;-65
2022/09/14 07:13:37;;;;;;;2.95;1.60;;;;;;;17.53;64.05;99745.41;4973924;27;98395;-65
2022/09/14 07:16:04;;;;;;;2.80;1.50;;;;;;;17.55;63.82;99745.09;4979746;27;98256;-65
2022/09/14 07:18:33;;;;;;;2.50;1.20;;;;;;;17.53;63.85;99750.06;4978512;27;98234;-65
2022/09/14 07:21:09;;;;;;;2.42;1.10;;;;;;;17.52;63.77;99751.19;4982739;27;98034;-65
2022/09/14 07:23:38;;;;;;;2.70;1.00;;;;;;;17.53;63.52;99741.91;4979432;27;97936;-73
2022/09/14 07:26:11;;;;;;;3.00;1.00;;;;;;;17.59;63.26;99748.75;4975965;27;97881;-73
2022/09/14 07:28:38;;;;;;;3.92;1.10;;;;;;;17.65;63.07;99739.25;4966148;27;98222;-65
2022/09/14 07:31:38;;;;;;;3.17;0.70;;;;;;;17.74;62.83;99734.53;4946141;27;99363;-73
2022/09/14 07:34:06;;;;;;;2.45;0.82;;;;;;;17.87;62.68;99735.41;4959549;27;100063;-73
2022/09/14 07:36:35;;;;;;;1.83;0.82;;;;;;;17.94;62.36;99735.69;4984314;27;98885;-73
2022/09/14 07:39:02;;;;;;;1.60;0.60;;;;;;;18.04;62.28;99748.91;4960907;27;98409;-65
2022/09/14 07:41:33;;;;;;;3.55;0.60;;;;;;;18.09;62.17;99739.72;4977441;27;99143;-73
2022/09/14 07:44:00;;;;;;;2.50;0.60;;;;;;;18.17;61.93;99738.84;4953146;27;98038;-65
2022/09/14 07:46:28;;;;;;;0.93;0.32;;;;;;;18.27;61.46;99743.06;4963430;27;103172;-65
2022/09/14 07:48:59;;;;;;;2.25;0.32;;;;;;;18.35;61.22;99737.56;4969661;27;98083;-73
2022/09/14 07:51:29;;;;;;;1.00;0.30;;;;;;;18.44;60.95;99740.19;4945523;27;98021;-73
2022/09/14 07:53:58;;;;;;;1.58;0.40;;;;;;;18.54;60.57;99744.41;4976628;27;98523;-73
2022/09/14 07:56:26;;;;;;;0.73;0.30;;;;;;;18.62;60.15;99744.28;4968708;27;98041;-73
2022/09/14 07:58:54;;;;;;;2.65;0.20;;;;;;;18.71;60.18;99744.25;4963356;27;98097;-65
2022/09/14 08:01:21;;;;;;;1.30;0.30;;;;;;;18.81;59.91;99746.53;4969238;27;97946;-65
2022/09/14 08:03:50;;;;;;;1.52;0.20;;;;;;;18.94;59.32;99746.53;4978349;27;98120;-73
2022/09/14 08:06:21;;;;;;;0.75;0.20;;;;;;;19.05;59.17;99743.00;4945658;27;97995;-65
2022/09/14 08:08:50;;;;;;;1.17;0.20;;;;;;;19.12;58.68;99748.69;4945938;27;97837;-65
2022/09/14 08:11:19;;;;;;;0.93;0.20;;;;;;;19.27;58.79;99739.03;4953208;27;99141;-65
2022/09/14 08:13:52;;;;;;;1.38;0.20;;;;;;;19.45;58.67;99744.25;4981500;27;99744;-65
2022/09/14 08:16:21;;;;;;;1.50;0.20;;;;;;;19.57;58.02;99747.78;4950657;27;98013;-74
2022/09/14 08:19:01;;;;;;;0.57;0.20;;;;;;;19.71;57.79;99747.41;4962515;27;98112;-74
2022/09/14 08:21:29;;;;;;;0.80;0.10;;;;;;;19.94;57.02;99735.97;4967723;27;98268;-65
2022/09/14 08:24:00;;;;;;;0.75;0.10;;;;;;;20.31;56.46;99739.31;4972256;27;98090;-65
2022/09/14 08:26:27;;;;;;;0.47;0.10;;;;;;;20.69;55.41;99732.53;4984291;27;98015;-66
2022/09/14 08:28:56;;;;;;;1.48;0.20;;;;;;;20.90;55.29;99735.00;4944840;27;97916;-74
2022/09/14 08:31:26;;;;;;;0.68;0.10;;;;;;;21.00;55.45;99737.22;4963716;27;99755;-66
2022/09/14 08:34:02;;;;;;;0.88;0.10;;;;;;;21.04;55.36;99736.13;4985850;27;98131;-74
2022/09/14 08:36:31;;;;;;;0.65;0.10;;;;;;;21.15;53.89;99739.13;4981264;27;98349;-66
2022/09/14 08:38:59;;;;;;;0.55;0.10;;;;;;;21.15;53.72;99730.91;4980647;27;98064;-74
2022/09/14 08:41:50;;;;;;;0.90;0.10;;;;;;;21.14;54.60;99725.78;4979445;27;100122;-66
2022/09/14 08:44:41;;;;;;;0.30;0.00;;;;;;;21.11;54.22;99727.31;4991345;27;99152;-65
2022/09/14 08:47:17;;;;;;;0.30;0.10;;;;;;;21.09;54.44;99733.13;4993815;27;97887;-65
2022/09/14 08:50:13;;;;;;;1.52;0.15;;;;;;;20.97;54.93;99730.47;4983260;27;97818;-74
2022/09/14 08:52:52;;;;;;;0.38;0.10;;;;;;;20.77;54.50;99726.06;4990491;27;98103;-74
2022/09/14 08:55:44;;;;;;;1.08;0.13;;;;;;;20.61;55.36;99728.81;4982405;27;97868;-65
2022/09/14 08:58:32;;;;;;;0.75;0.10;;;;;;;20.48;54.72;99733.53;4984899;27;98766;-73
2022/09/14 09:01:21;;;;;;;0.90;0.10;;;;;;;20.43;55.43;99738.47;5006269;27;97855;-65
2022/09/14 09:03:58;;;;;;;0.77;0.10;;;;;;;20.41;55.17;99727.09;4978056;27;97907;-65
2022/09/14 09:06:50;;;;;;;0.40;0.10;;;;;;;20.38;54.96;99728.56;4996188;27;98274;-65
2022/09/14 09:09:44;;;;;;;1.17;0.17;;;;;;;20.41;55.28;99725.13;4982012;27;97992;-65
2022/09/14 09:12:33;;;;;;;2.17;0.20;;;;;;;20.43;55.04;99727.50;4982081;27;97767;-65
2022/09/14 09:15:05;;;;;;;3.75;0.30;;;;;;;20.46;54.69;99721.34;4969909;27;98259;-73
2022/09/14 09:17:44;;;;;;;;;;;;;;;20.56;55.26;99715.38;4984346;27;97950;-73
2022/09/14 09:20:32;;;;;;;0.70;0.10;;;;;;;20.62;54.85;99705.75;4985881;27;97728;-73
2022/09/14 09:23:11;;;;;;;0.38;0.10;;;;;;;20.86;54.24;99706.72;4983945;27;97568;-74
2022/09/14 09:25:59;;;;;;;0.57;0.10;;;;;;;21.08;54.02;99704.16;4999941;27;99037;-73
2022/09/14 09:28:27;;;;;;;1.10;0.10;;;;;;;21.38;53.25;99697.38;4979753;27;100303;-74
2022/09/14 09:30:54;;;;;;;1.45;0.10;;;;;;;21.71;52.56;99700.47;4961352;27;97865;-74
2022/09/14 09:33:24;;;;;;;0.43;0.10;;;;;;;21.94;52.36;99702.50;4952041;27;105529;-74
2022/09/14 09:35:53;;;;;;;0.60;0.10;;;;;;;21.98;52.13;99703.34;4977068;27;98177;-74
2022/09/14 09:38:26;;;;;;;0.10;0.00;;;;;;;21.90;52.73;99704.38;4962383;27;98883;-65
2022/09/14 09:41:17;;;;;;;1.63;0.10;;;;;;;21.75;52.74;99697.78;4964789;27;97902;-65
2022/09/14 09:44:11;;;;;;;1.08;0.10;;;;;;;21.60;53.28;99693.16;4971412;27;98345;-65
2022/09/14 09:46:52;;;;;;;0.55;0.10;;;;;;;21.42;52.87;99690.84;4987914;27;97980;-67
2022/09/14 09:49:29;;;;;;;0.77;0.20;;;;;;;21.22;53.22;99690.00;4965457;27;100327;-65
2022/09/14 09:52:13;;;;;;;0.82;0.20;;;;;;;21.15;53.03;99683.56;4981674;27;97959;-73
2022/09/14 09:54:50;;;;;;;0.80;0.17;;;;;;;21.13;53.04;99683.88;4977425;27;97865;-73
2022/09/14 09:57:34;;;;;;;0.47;0.10;;;;;;;21.24;53.24;99678.66;4974379;27;98202;-65
2022/09/14 10:00:28;;;;;;;1.98;0.20;;;;;;;21.63;52.71;99690.50;4978290;27;98486;-65
2022/09/14 10:02:55;;;;;;;0.68;0.10;;;;;;;21.97;51.55;99682.56;4956508;27;98693;-65
2022/09/14 10:05:31;;;;;;;0.63;0.10;;;;;;;22.34;51.55;99674.66;4932359;27;98210;-66
2022/09/14 10:08:13;;;;;;;0.85;0.10;;;;;;;22.73;50.52;99675.31;4935165;27;98194;-66
2022/09/14 10:10:43;;;;;;;3.33;0.20;;;;;;;23.06;50.66;99684.06;4958632;28;97911;-66
2022/09/14 10:13:34;;;;;;;2.53;0.10;;;;;;;23.33;50.14;99671.09;4947264;28;98874;-66
2022/09/14 10:16:17;;;;;;;1.15;0.10;;;;;;;23.70;50.19;99669.28;4938045;27;98297;-66
2022/09/14 10:18:49;;;;;;;0.32;0.10;;;;;;;24.02;49.38;99666.09;4959712;27;98255;-66
2022/09/14 10:21:19;;;;;;;1.13;0.10;;;;;;;24.18;48.58;99665.84;4943637;27;97909;-66
2022/09/14 10:23:45;;;;;;;1.02;0.15;;;;;;;24.45;48.03;99667.34;4951955;27;97840;-66
2022/09/14 10:26:11;;;;;;;0.30;0.10;;;;;;;24.57;47.69;99670.97;4938805;27;98881;-66
2022/09/14 10:28:43;;;;;;;2.70;0.15;;;;;;;24.37;48.53;99662.13;4982336;27;98321;-74
2022/09/14 10:31:21;;;;;;;0.77;0.10;;;;;;;24.03;49.38;99662.16;4940686;27;98011;-74
2022/09/14 10:33:57;;;;;;;1.10;0.10;;;;;;;23.64;49.95;99664.44;4959658;27;98183;-66
2022/09/14 10:36:45;;;;;;;0.40;0.10;;;;;;;23.32;49.36;99672.28;4948812;27;98090;-66
2022/09/14 10:39:28;;;;;;;3.13;0.20;;;;;;;23.02;50.16;99664.78;4956650;27;98049;-74
2022/09/14 10:42:18;;;;;;;0.38;0.00;;;;;;;22.82;50.68;99663.28;4932092;28;98237;-74
2022/09/14 10:45:06;;;;;;;0.35;0.10;;;;;;;22.63;50.59;99658.66;4973315;27;98031;-74
2022/09/14 10:48:14;;;;;;;1.35;0.20;;;;;;;22.47;50.73;99654.06;4937116;28;97983;-74
2022/09/14 10:51:30;;;;;;;2.38;0.20;;;;;;;22.32;51.13;99662.44;4943171;28;98112;-66
2022/09/14 10:54:03;;;;;;;0.30;0.00;;;;;;;22.19;50.96;99659.06;4966773;27;97903;-66
2022/09/14 10:57:01;;;;;;;0.68;0.10;;;;;;;22.17;51.15;99658.66;4961860;27;98095;-74
2022/09/14 10:59:55;;;;;;;0.57;0.10;;;;;;;22.16;50.83;99649.63;4967616;27;99218;-66
2022/09/14 11:02:59;;;;;;;0.60;0.05;;;;;;;22.13;51.01;99655.03;4970561;27;98026;-66
2022/09/14 11:05:57;;;;;;;0.95;0.10;;;;;;;22.04;51.13;99660.72;4977820;27;98436;-66
2022/09/14 11:08:32;;;;;;;0.25;0.10;;;;;;;21.92;50.88;99658.16;4977888;27;98220;-74
2022/09/14 11:11:43;;;;;;;0.40;0.10;;;;;;;21.78;51.34;99662.22;4984885;27;98321;-67
2022/09/14 11:14:28;;;;;;;0.52;0.00;;;;;;;21.61;51.46;99654.41;5011301;27;99986;-66
2022/09/14 11:17:07;;;;;;;1.98;0.10;;;;;;;21.49;51.44;99657.28;4998609;27;98607;-66
2022/09/14 11:20:07;;;;;;;1.58;0.10;;;;;;;21.35;51.92;99657.78;4976955;27;98981;-73
2022/09/14 11:23:03;;;;;;;1.85;0.08;;;;;;;21.18;52.10;99658.97;4980349;27;98066;-74
2022/09/14 11:25:44;;;;;;;3.22;0.10;;;;;;;21.05;52.20;99652.78;4981240;27;99730;-66
2022/09/14 11:28:41;;;;;;;1.35;0.10;;;;;;;20.97;52.05;99651.03;4943351;27;123893;-73
2022/09/14 11:31:11;;;;;;;1.88;0.10;;;;;;;20.91;52.14;99646.22;4955690;27;97872;-66
2022/09/14 11:33:56;;;;;;;1.88;0.20;;;;;;;20.82;52.14;99640.91;4963051;27;97907;-66
2022/09/14 11:36:33;;;;;;;0.70;0.10;;;;;;;20.78;52.31;99642.78;4983409;27;98249;-73
2022/09/14 11:39:27;;;;;;;1.20;0.20;;;;;;;20.72;52.29;99636.00;4976073;27;98041;-66
2022/09/14 11:42:10;;;;;;;0.80;0.20;;;;;;;20.63;52.58;99643.56;4960324;27;99889;-65
2022/09/14 11:44:41;;;;;;;1.08;0.10;;;;;;;20.56;52.34;99638.75;4978602;27;98292;-65
2022/09/14 11:47:17;;;;;;;0.90;0.10;;;;;;;20.47;52.62;99635.34;4938893;27;99561;-65
2022/09/14 11:50:19;;;;;;;1.52;0.10;;;;;;;20.39;52.51;99633.56;4948439;27;98100;-73
2022/09/14 11:52:45;;;;;;;1.92;0.10;;;;;;;20.30;52.81;99631.03;4977928;27;98240;-65
2022/09/14 11:55:16;;;;;;;0.30;0.03;;;;;;;20.20;53.04;99624.16;4989825;27;98163;-65
2022/09/14 11:57:47;;;;;;;0.80;0.10;;;;;;;20.16;53.29;99619.69;4967688;27;97953;-73
2022/09/14 12:00:24;;;;;;;0.80;0.10;;;;;;;20.10;53.20;99613.72;4961481;27;98426;-65
2022/09/14 12:03:19;;;;;;;0.93;0.20;;;;;;;20.12;53.40;99611.41;4991136;27;97957;-65
2022/09/14 12:05:50;;;;;;;0.98;0.10;;;;;;;20.13;53.37;99609.50;4955730;27;98067;-73
2022/09/14 12:08:38;;;;;;;1.00;0.10;;;;;;;20.08;53.61;99616.81;4975098;27;97911;-74